Time;durP1;ratioP1;P1;durP2;ratioP2;P2;SDS_P1;SDS_P2;PMS_P1;PMS_P2;Temp;Humidity;BMP_temperature;BMP_pressure;BME280_temperature;BME280_humidity;BME280_pressure;Samples;Min_cycle;Max_cycle;Signal;HPM_P1;HPM_P2
2020/12/24 00:02:26;;;;;;;0.50;0.50;;;6.20;99.90;;;;;;4969616;28;20226;-84
2020/12/24 00:04:52;;;;;;;0.40;0.40;;;5.70;99.90;;;;;;4969752;28;20203;-84
2020/12/24 00:07:18;;;;;;;0.50;0.50;;;5.70;99.90;;;;;;4969945;28;20199;-83
2020/12/24 00:09:44;;;;;;;0.50;0.50;;;5.70;99.90;;;;;;4969576;28;20207;-84
2020/12/24 00:12:11;;;;;;;0.50;0.50;;;5.70;99.90;;;;;;4969219;28;20482;-86
2020/12/24 00:14:37;;;;;;;0.40;0.40;;;5.70;99.90;;;;;;4969740;28;20692;-84
2020/12/24 00:17:04;;;;;;;0.40;0.40;;;5.70;99.90;;;;;;4969533;28;20202;-84
2020/12/24 00:19:30;;;;;;;0.50;0.50;;;5.60;99.90;;;;;;4969086;28;20756;-85
2020/12/24 00:21:56;;;;;;;0.50;0.50;;;5.60;99.90;;;;;;4969201;28;20787;-85
2020/12/24 00:24:22;;;;;;;0.40;0.40;;;5.70;99.90;;;;;;4969619;28;20262;-84
2020/12/24 00:26:48;;;;;;;0.40;0.40;;;5.80;99.90;;;;;;4969820;28;20203;-84
2020/12/24 00:29:14;;;;;;;0.40;0.40;;;5.70;99.90;;;;;;4971861;28;20658;-85
2020/12/24 00:31:41;;;;;;;0.40;0.40;;;5.70;99.90;;;;;;4973684;28;20202;-84
2020/12/24 00:34:08;;;;;;;0.50;0.50;;;5.70;99.90;;;;;;4973620;28;20206;-84
2020/12/24 00:36:34;;;;;;;0.47;0.47;;;5.70;99.90;;;;;;4974079;28;20207;-84
2020/12/24 00:39:01;;;;;;;0.50;0.50;;;5.70;99.90;;;;;;4973278;28;20242;-85
2020/12/24 00:41:28;;;;;;;0.40;0.40;;;5.60;99.90;;;;;;4973498;28;20207;-84
2020/12/24 00:43:54;;;;;;;0.40;0.40;;;5.60;99.90;;;;;;4973487;28;20207;-84
2020/12/24 00:46:20;;;;;;;0.50;0.50;;;5.60;99.90;;;;;;4974104;28;20269;-84
2020/12/24 00:48:47;;;;;;;0.50;0.50;;;5.60;99.90;;;;;;4973117;28;20198;-86
2020/12/24 00:51:14;;;;;;;0.50;0.50;;;5.50;99.90;;;;;;4973160;28;20231;-84
2020/12/24 00:53:40;;;;;;;0.40;0.40;;;5.50;99.90;;;;;;4973113;28;20199;-84
2020/12/24 00:56:07;;;;;;;0.40;0.40;;;5.50;99.90;;;;;;4973173;28;20211;-84
2020/12/24 00:58:33;;;;;;;0.50;0.50;;;5.60;99.90;;;;;;4973757;28;20235;-85
2020/12/24 01:00:59;;;;;;;0.45;0.45;;;5.50;99.90;;;;;;4972974;28;20199;-85
2020/12/24 01:03:26;;;;;;;0.40;0.40;;;5.50;99.90;;;;;;4972845;28;20804;-84
2020/12/24 01:05:52;;;;;;;0.50;0.50;;;5.50;99.90;;;;;;4972927;28;20218;-84
2020/12/24 01:08:19;;;;;;;0.43;0.43;;;5.40;99.90;;;;;;4973005;28;20211;-84
2020/12/24 01:10:45;;;;;;;0.50;0.50;;;5.30;99.90;;;;;;4972532;28;20659;-84
2020/12/24 01:13:11;;;;;;;0.40;0.40;;;5.30;99.90;;;;;;4972785;28;20731;-84
2020/12/24 01:15:37;;;;;;;0.50;0.50;;;5.20;99.90;;;;;;4972807;28;20199;-84
2020/12/24 01:18:03;;;;;;;0.40;0.40;;;5.30;99.90;;;;;;4973120;28;21097;-84
2020/12/24 01:20:30;;;;;;;0.50;0.50;;;5.20;99.90;;;;;;4972810;28;20685;-84
2020/12/24 01:22:56;;;;;;;0.43;0.43;;;5.20;99.90;;;;;;4972391;28;20211;-84
2020/12/24 01:25:23;;;;;;;0.47;0.47;;;5.10;99.90;;;;;;4972361;28;20207;-84
2020/12/24 01:27:49;;;;;;;0.50;0.50;;;5.50;99.90;;;;;;4972721;28;20221;-84
2020/12/24 01:30:15;;;;;;;0.50;0.50;;;5.10;99.90;;;;;;4972327;28;20199;-84
2020/12/24 01:32:41;;;;;;;0.40;0.40;;;5.10;99.90;;;;;;4972513;28;20270;-85
2020/12/24 01:35:07;;;;;;;0.40;0.40;;;5.10;99.90;;;;;;4972372;28;20207;-84
2020/12/24 01:37:34;;;;;;;0.47;0.47;;;5.20;99.90;;;;;;4972752;28;20207;-84
2020/12/24 01:40:00;;;;;;;0.40;0.40;;;5.10;99.90;;;;;;4970652;28;20235;-84
2020/12/24 01:42:27;;;;;;;0.40;0.40;;;5.10;99.90;;;;;;4972328;28;20207;-84
2020/12/24 01:44:53;;;;;;;0.47;0.47;;;5.00;99.90;;;;;;4972031;28;20568;-84
2020/12/24 01:47:20;;;;;;;0.43;0.43;;;5.00;99.90;;;;;;4972537;28;20203;-84
2020/12/24 01:49:46;;;;;;;0.40;0.40;;;5.50;99.90;;;;;;4971920;28;20207;-84
2020/12/24 01:52:41;;;;;;;0.45;0.45;;;5.00;99.90;;;;;;4964073;28;20690;-85
2020/12/24 01:55:09;;;;;;;0.50;0.50;;;5.00;99.90;;;;;;4971743;28;20203;-84
2020/12/24 01:57:37;;;;;;;0.50;0.50;;;5.00;99.90;;;;;;4972266;28;20210;-84
2020/12/24 02:00:05;;;;;;;0.50;0.50;;;5.00;99.90;;;;;;4971904;28;20199;-86
2020/12/24 02:02:31;;;;;;;0.50;0.50;;;5.00;99.90;;;;;;4972004;28;20569;-85
2020/12/24 02:04:58;;;;;;;0.45;0.45;;;5.20;99.90;;;;;;4971733;28;20213;-85
2020/12/24 02:07:24;;;;;;;0.40;0.40;;;5.00;99.90;;;;;;4971421;28;20258;-84
2020/12/24 02:09:50;;;;;;;0.47;0.47;;;5.00;99.90;;;;;;4971860;28;20198;-85
2020/12/24 02:12:18;;;;;;;0.40;0.40;;;5.00;99.90;;;;;;4971539;28;20203;-84
2020/12/24 02:14:45;;;;;;;0.50;0.50;;;5.00;99.90;;;;;;4971254;28;20203;-84
2020/12/24 02:17:12;;;;;;;0.40;0.40;;;5.10;99.90;;;;;;4971341;28;20253;-85
2020/12/24 02:22:42;;;;;;;0.50;0.50;;;5.10;99.90;;;;;;5625669;23;20641;-83
2020/12/24 02:31:08;;;;;;;0.40;0.40;;;6.10;99.90;;;;;;4837514;29;20298;-87
2020/12/24 02:33:36;;;;;;;0.40;0.40;;;5.10;99.90;;;;;;4915354;29;20238;-88
2020/12/24 02:36:03;;;;;;;0.50;0.50;;;6.20;99.90;;;;;;4950887;29;20890;-88
2020/12/24 02:38:30;;;;;;;0.47;0.47;;;4.70;99.90;;;;;;4951029;29;20234;-86
2020/12/24 02:40:57;;;;;;;0.40;0.40;;;5.20;99.90;;;;;;4951428;29;20242;-86
2020/12/24 02:43:25;;;;;;;0.40;0.40;;;4.90;99.90;;;;;;4950971;29;20210;-86
2020/12/24 02:45:57;;;;;;;0.40;0.40;;;4.50;99.90;;;;;;4950801;29;20678;-87
2020/12/24 02:48:23;;;;;;;0.40;0.40;;;4.60;99.90;;;;;;4951059;29;20246;-87
2020/12/24 02:50:49;;;;;;;0.50;0.50;;;4.50;99.90;;;;;;4950545;28;20525;-88
2020/12/24 02:53:16;;;;;;;0.45;0.45;;;4.40;99.90;;;;;;4950772;29;20211;-87
2020/12/24 02:55:44;;;;;;;0.45;0.45;;;4.30;99.90;;;;;;4951166;29;20208;-87
2020/12/24 02:58:10;;;;;;;0.45;0.45;;;4.50;99.90;;;;;;4951004;29;20317;-88
2020/12/24 03:00:37;;;;;;;0.40;0.40;;;4.80;99.90;;;;;;4950454;29;20632;-87
2020/12/24 03:03:03;;;;;;;0.50;0.50;;;4.60;99.90;;;;;;4950723;29;20241;-87
2020/12/24 03:05:30;;;;;;;0.40;0.40;;;4.80;99.90;;;;;;4951066;29;20299;-88
2020/12/24 03:07:58;;;;;;;0.50;0.50;;;4.60;99.90;;;;;;4950863;29;20203;-88
2020/12/24 03:10:31;;;;;;;0.47;0.47;;;4.80;99.90;;;;;;4951327;29;20329;-87
2020/12/24 03:13:00;;;;;;;0.50;0.50;;;3.90;99.90;;;;;;4951155;29;20582;-88
2020/12/24 03:15:26;;;;;;;0.40;0.40;;;4.70;99.90;;;;;;4950933;29;20258;-87
2020/12/24 03:17:55;;;;;;;0.50;0.50;;;4.80;99.90;;;;;;4950302;29;20246;-89
2020/12/24 03:20:25;;;;;;;0.40;0.40;;;4.40;99.90;;;;;;4950400;29;20215;-87
2020/12/24 03:22:55;;;;;;;0.47;0.47;;;4.70;99.90;;;;;;4958050;28;20226;-89
2020/12/24 03:25:24;;;;;;;0.50;0.50;;;4.10;99.90;;;;;;4969707;28;20213;-87
2020/12/24 03:27:50;;;;;;;0.50;0.50;;;4.50;99.90;;;;;;4969330;28;20295;-87
2020/12/24 03:30:17;;;;;;;0.47;0.47;;;3.40;99.90;;;;;;4969577;28;20218;-87
2020/12/24 03:32:43;;;;;;;0.40;0.40;;;4.60;99.90;;;;;;4969590;28;20234;-87
2020/12/24 03:35:10;;;;;;;0.40;0.40;;;4.50;99.90;;;;;;4969984;28;20302;-87
2020/12/24 03:37:36;;;;;;;0.45;0.45;;;4.00;99.90;;;;;;4969282;28;20257;-87
2020/12/24 03:40:03;;;;;;;0.40;0.40;;;4.50;99.90;;;;;;4969178;28;20206;-87
2020/12/24 03:42:30;;;;;;;0.50;0.50;;;4.30;99.90;;;;;;4969193;28;20691;-87
2020/12/24 03:44:57;;;;;;;0.40;0.40;;;4.60;99.90;;;;;;4969621;28;20233;-86
2020/12/24 03:47:24;;;;;;;0.45;0.45;;;5.50;99.90;;;;;;4969502;28;20313;-87
2020/12/24 03:49:59;;;;;;;0.40;0.40;;;3.90;99.90;;;;;;4969564;28;20688;-86
2020/12/24 03:52:47;;;;;;;0.40;0.40;;;4.00;99.90;;;;;;4969384;28;20233;-85
2020/12/24 03:55:13;;;;;;;0.40;0.40;;;4.60;99.90;;;;;;4964463;28;20626;-84
2020/12/24 03:57:39;;;;;;;0.50;0.50;;;4.70;99.90;;;;;;4968891;28;20206;-83
2020/12/24 04:00:05;;;;;;;0.50;0.50;;;4.70;99.90;;;;;;4968603;28;20217;-83
2020/12/24 04:02:32;;;;;;;0.40;0.40;;;4.70;99.90;;;;;;4968589;28;20211;-86
2020/12/24 04:04:58;;;;;;;0.40;0.40;;;4.80;99.90;;;;;;4968579;28;20250;-85
2020/12/24 04:07:24;;;;;;;0.40;0.40;;;4.70;99.90;;;;;;4969521;28;20282;-85
2020/12/24 04:09:50;;;;;;;0.40;0.40;;;4.60;99.90;;;;;;4968586;28;20207;-84
2020/12/24 04:12:16;;;;;;;0.47;0.47;;;4.60;99.90;;;;;;4968519;28;20210;-84
2020/12/24 04:14:43;;;;;;;0.50;0.50;;;4.60;99.90;;;;;;4968764;28;20580;-85
2020/12/24 04:17:09;;;;;;;0.50;0.50;;;4.60;99.90;;;;;;4969079;28;20202;-84
2020/12/24 04:19:35;;;;;;;0.40;0.40;;;4.60;99.90;;;;;;4968336;28;20231;-83
2020/12/24 04:22:02;;;;;;;0.50;0.50;;;4.60;99.90;;;;;;4968168;28;20580;-85
2020/12/24 04:24:28;;;;;;;0.47;0.47;;;4.50;99.90;;;;;;4968661;28;20258;-84
2020/12/24 04:26:56;;;;;;;0.50;0.50;;;4.50;99.90;;;;;;4968473;28;20270;-86
2020/12/24 04:29:22;;;;;;;0.50;0.50;;;4.40;99.90;;;;;;4968469;28;20199;-87
2020/12/24 04:31:48;;;;;;;0.40;0.40;;;4.40;99.90;;;;;;4968260;28;20261;-87
2020/12/24 04:34:14;;;;;;;0.47;0.47;;;4.40;99.90;;;;;;4968364;28;20661;-87
2020/12/24 04:36:44;;;;;;;0.40;0.40;;;4.40;99.90;;;;;;4968751;28;20303;-87
2020/12/24 04:39:11;;;;;;;0.50;0.50;;;4.40;99.90;;;;;;4968541;28;20258;-87
2020/12/24 04:41:37;;;;;;;0.40;0.40;;;4.40;99.90;;;;;;4968474;28;20214;-88
2020/12/24 04:44:03;;;;;;;0.40;0.40;;;4.40;99.90;;;;;;4968070;28;20692;-87
2020/12/24 04:46:29;;;;;;;0.50;0.50;;;4.30;99.90;;;;;;4968245;28;20236;-87
2020/12/24 04:48:57;;;;;;;0.50;0.50;;;4.30;99.90;;;;;;4968580;28;20207;-87
2020/12/24 04:51:25;;;;;;;0.50;0.50;;;4.20;99.90;;;;;;4968573;28;20362;-87
2020/12/24 04:53:52;;;;;;;0.50;0.50;;;4.20;99.90;;;;;;4967959;28;20661;-87
2020/12/24 04:56:19;;;;;;;0.40;0.40;;;4.20;99.90;;;;;;4968232;28;20214;-87
2020/12/24 04:58:45;;;;;;;0.50;0.50;;;4.20;99.90;;;;;;4967926;28;20234;-87
2020/12/24 05:01:15;;;;;;;0.50;0.50;;;4.20;99.90;;;;;;4968680;28;20266;-87
2020/12/24 05:03:42;;;;;;;0.45;0.45;;;4.20;99.90;;;;;;4968746;28;20210;-88
2020/12/24 05:06:13;;;;;;;0.50;0.50;;;4.20;99.90;;;;;;4968309;28;20576;-87
2020/12/24 05:08:39;;;;;;;0.50;0.50;;;4.20;99.90;;;;;;4968530;28;20195;-88
2020/12/24 05:11:07;;;;;;;0.50;0.50;;;4.10;99.90;;;;;;4967910;28;20210;-87
2020/12/24 05:13:34;;;;;;;0.40;0.40;;;4.10;99.90;;;;;;4968075;28;20215;-86
2020/12/24 05:16:13;;;;;;;0.40;0.40;;;4.10;99.90;;;;;;4971244;28;20203;-89
2020/12/24 05:18:39;;;;;;;0.50;0.50;;;4.10;99.90;;;;;;4972178;28;20243;-87
2020/12/24 05:21:05;;;;;;;0.40;0.40;;;4.10;99.90;;;;;;4971291;28;20602;-88
2020/12/24 05:23:31;;;;;;;0.50;0.50;;;4.00;99.90;;;;;;4971478;28;20229;-89
2020/12/24 05:25:58;;;;;;;0.40;0.40;;;4.00;99.90;;;;;;4971660;28;20768;-88
2020/12/24 05:28:26;;;;;;;0.50;0.50;;;4.00;99.90;;;;;;4972296;28;20211;-87
2020/12/24 05:30:53;;;;;;;0.45;0.45;;;4.00;99.90;;;;;;4971715;28;20222;-88
2020/12/24 05:33:27;;;;;;;0.50;0.50;;;4.00;99.90;;;;;;4971334;28;20559;-87
2020/12/24 05:35:53;;;;;;;0.40;0.40;;;3.90;99.90;;;;;;4971708;28;20221;-87
2020/12/24 05:38:42;;;;;;;0.45;0.45;;;3.90;99.90;;;;;;4971123;28;20241;-88
2020/12/24 05:41:26;;;;;;;0.40;0.40;;;3.90;99.90;;;;;;4964648;28;20576;-88
2020/12/24 05:43:58;;;;;;;0.50;0.50;;;3.90;99.90;;;;;;4971154;28;20229;-88
2020/12/24 05:46:26;;;;;;;0.50;0.50;;;3.90;99.90;;;;;;4971505;28;20592;-88
2020/12/24 05:48:52;;;;;;;0.50;0.50;;;3.70;99.90;;;;;;4971018;28;20195;-87
2020/12/24 05:51:18;;;;;;;0.50;0.50;;;3.70;99.90;;;;;;4971020;28;20603;-88
2020/12/24 05:53:45;;;;;;;0.50;0.50;;;3.70;99.90;;;;;;4971009;28;20207;-87
2020/12/24 05:56:20;;;;;;;0.50;0.50;;;3.70;99.90;;;;;;4971372;28;20242;-87
2020/12/24 05:58:47;;;;;;;0.50;0.50;;;3.60;99.90;;;;;;4970879;28;20233;-86
2020/12/24 06:01:15;;;;;;;0.50;0.50;;;3.50;99.90;;;;;;4971123;28;20207;-85
2020/12/24 06:04:03;;;;;;;0.50;0.50;;;3.50;99.90;;;;;;4971409;28;20239;-84
2020/12/24 06:06:43;;;;;;;0.47;0.47;;;3.50;99.90;;;;;;4970985;28;20210;-85
2020/12/24 06:09:13;;;;;;;0.50;0.50;;;3.50;99.90;;;;;;4970944;28;20195;-85
2020/12/24 06:11:45;;;;;;;0.50;0.50;;;3.40;99.90;;;;;;4971331;28;20233;-85
2020/12/24 06:14:32;;;;;;;0.50;0.50;;;3.30;99.90;;;;;;4971158;28;20301;-85
2020/12/24 06:17:07;;;;;;;0.50;0.50;;;3.00;99.90;;;;;;4970914;28;20580;-84
2020/12/24 06:19:39;;;;;;;0.50;0.50;;;3.10;99.90;;;;;;4970247;28;20633;-85
2020/12/24 06:22:06;;;;;;;0.50;0.50;;;3.10;99.90;;;;;;4970082;28;20257;-85
2020/12/24 06:24:35;;;;;;;0.50;0.50;;;3.10;99.90;;;;;;4970350;28;20414;-85
2020/12/24 06:27:09;;;;;;;0.50;0.50;;;3.00;99.90;;;;;;4969515;28;20239;-85
2020/12/24 06:29:39;;;;;;;0.50;0.50;;;3.00;99.90;;;;;;4970333;28;20575;-85
2020/12/24 06:32:07;;;;;;;0.50;0.50;;;3.00;99.90;;;;;;4970390;28;20599;-85
2020/12/24 06:34:39;;;;;;;0.50;0.50;;;3.00;99.90;;;;;;4970128;28;20437;-86
2020/12/24 06:37:13;;;;;;;0.50;0.50;;;3.00;99.90;;;;;;4970178;28;20694;-85
2020/12/24 06:39:44;;;;;;;0.50;0.50;;;3.00;99.90;;;;;;4970727;28;20324;-85
2020/12/24 06:42:39;;;;;;;0.50;0.50;;;2.90;99.90;;;;;;4970430;28;20207;-86
2020/12/24 06:45:06;;;;;;;0.50;0.50;;;2.70;99.90;;;;;;4969928;28;20271;-85
2020/12/24 06:47:33;;;;;;;0.50;0.50;;;2.60;99.90;;;;;;4969956;28;20203;-85
2020/12/24 06:50:00;;;;;;;0.50;0.50;;;2.50;99.90;;;;;;4969884;28;20580;-86
2020/12/24 06:52:30;;;;;;;0.50;0.50;;;2.40;99.90;;;;;;4970453;28;20586;-86
2020/12/24 06:55:15;;;;;;;0.50;0.50;;;2.20;99.90;;;;;;4970329;28;20241;-85
2020/12/24 06:57:42;;;;;;;0.50;0.50;;;2.10;99.90;;;;;;4970250;28;20207;-87
2020/12/24 07:00:20;;;;;;;0.50;0.50;;;2.00;99.90;;;;;;4970103;28;20667;-86
2020/12/24 07:02:49;;;;;;;0.50;0.50;;;1.90;99.90;;;;;;4969672;28;20207;-87
2020/12/24 07:05:43;;;;;;;0.50;0.50;;;1.90;99.90;;;;;;4969864;28;20207;-86
2020/12/24 07:08:09;;;;;;;0.50;0.50;;;1.80;99.90;;;;;;4970002;28;20560;-86
2020/12/24 07:10:45;;;;;;;0.50;0.50;;;1.80;99.90;;;;;;4969420;28;20207;-86
2020/12/24 07:13:31;;;;;;;0.50;0.50;;;1.80;99.90;;;;;;4969636;28;20210;-85
2020/12/24 07:15:57;;;;;;;0.50;0.50;;;1.70;99.90;;;;;;4970006;28;20207;-86
2020/12/24 07:18:25;;;;;;;0.50;0.50;;;1.70;99.90;;;;;;4969659;28;20258;-87
2020/12/24 07:20:52;;;;;;;0.50;0.50;;;1.60;99.90;;;;;;4969290;28;20214;-87
2020/12/24 07:23:28;;;;;;;0.50;0.50;;;1.60;99.90;;;;;;4969191;28;20620;-86
2020/12/24 07:25:54;;;;;;;0.50;0.50;;;1.50;99.90;;;;;;4969817;28;20270;-85
2020/12/24 07:28:21;;;;;;;0.50;0.50;;;1.50;99.90;;;;;;4969156;28;20214;-86
2020/12/24 07:30:56;;;;;;;0.40;0.40;;;1.50;99.90;;;;;;4969537;28;20203;-86
2020/12/24 07:33:22;;;;;;;0.50;0.50;;;1.40;99.90;;;;;;4969165;28;20203;-88
2020/12/24 07:35:49;;;;;;;0.50;0.50;;;1.40;99.90;;;;;;4969160;28;20258;-87
2020/12/24 07:38:18;;;;;;;0.50;0.50;;;1.40;99.90;;;;;;4968015;28;20211;-87
2020/12/24 07:40:44;;;;;;;0.50;0.50;;;1.30;99.90;;;;;;4969127;28;20258;-86
2020/12/24 07:43:11;;;;;;;0.50;0.50;;;1.30;99.90;;;;;;4969533;28;20207;-86
2020/12/24 07:45:38;;;;;;;0.50;0.50;;;1.30;99.90;;;;;;4969061;28;20574;-86
2020/12/24 07:48:11;;;;;;;0.50;0.50;;;1.20;99.90;;;;;;4968827;28;20211;-87
2020/12/24 07:50:37;;;;;;;0.50;0.50;;;1.20;99.90;;;;;;4968993;28;20215;-86
2020/12/24 07:53:04;;;;;;;0.50;0.50;;;1.10;99.90;;;;;;4968767;28;20716;-86
2020/12/24 07:55:30;;;;;;;0.50;0.50;;;1.10;99.90;;;;;;4968798;28;20206;-85
2020/12/24 07:58:06;;;;;;;0.40;0.40;;;1.10;99.90;;;;;;4969287;28;20586;-85
2020/12/24 08:00:39;;;;;;;0.40;0.40;;;1.10;99.90;;;;;;4968727;28;20228;-87
2020/12/24 08:03:05;;;;;;;0.50;0.50;;;1.20;99.90;;;;;;4968736;28;20337;-85
2020/12/24 08:05:31;;;;;;;0.50;0.50;;;1.20;99.90;;;;;;4968585;28;20206;-85
2020/12/24 08:08:00;;;;;;;0.40;0.40;;;1.30;99.90;;;;;;4965843;28;20218;-86
2020/12/24 08:10:28;;;;;;;0.40;0.40;;;1.30;99.90;;;;;;4968361;28;20207;-85
2020/12/24 08:13:21;;;;;;;0.50;0.50;;;1.30;99.90;;;;;;4968508;28;20211;-85
2020/12/24 08:15:50;;;;;;;0.40;0.40;;;1.40;99.90;;;;;;4922325;28;20492;-86
2020/12/24 08:18:22;;;;;;;0.40;0.40;;;1.40;99.90;;;;;;4968000;28;20651;-87
2020/12/24 08:20:56;;;;;;;0.40;0.40;;;1.40;99.90;;;;;;4968465;28;20207;-87
2020/12/24 08:23:30;;;;;;;0.50;0.50;;;1.30;99.90;;;;;;4968458;28;20229;-88
2020/12/24 08:25:59;;;;;;;0.40;0.40;;;1.30;99.90;;;;;;4968594;28;20257;-89
2020/12/24 08:28:25;;;;;;;0.50;0.50;;;1.20;99.90;;;;;;4968528;28;20207;-88
2020/12/24 08:30:53;;;;;;;0.40;0.40;;;1.20;99.90;;;;;;4968341;28;20207;-87
2020/12/24 08:33:22;;;;;;;0.40;0.40;;;0.90;99.90;;;;;;4969346;28;20217;-90
2020/12/24 08:35:50;;;;;;;0.40;0.40;;;1.20;99.90;;;;;;4968591;28;20207;-88
2020/12/24 08:38:18;;;;;;;0.50;0.50;;;1.10;99.90;;;;;;4967640;28;20226;-87
2020/12/24 08:40:45;;;;;;;0.40;0.40;;;1.10;99.90;;;;;;4967797;28;20211;-86
2020/12/24 08:43:13;;;;;;;0.40;0.40;;;1.10;99.90;;;;;;4960350;28;20218;-86
2020/12/24 08:45:43;;;;;;;0.43;0.43;;;1.20;99.90;;;;;;4968753;28;20578;-88
2020/12/24 08:48:10;;;;;;;0.40;0.40;;;1.30;99.90;;;;;;4971114;28;20218;-87
2020/12/24 08:50:40;;;;;;;0.40;0.40;;;1.20;99.90;;;;;;4973141;28;20261;-89
2020/12/24 08:53:06;;;;;;;0.40;0.40;;;1.30;99.90;;;;;;4972396;28;20210;-86
2020/12/24 08:55:33;;;;;;;0.40;0.40;;;1.30;99.90;;;;;;4972004;28;20210;-85
2020/12/24 08:58:00;;;;;;;0.40;0.40;;;1.40;99.90;;;;;;4971538;28;20245;-83
2020/12/24 09:00:27;;;;;;;0.50;0.50;;;1.40;99.90;;;;;;4972144;28;20229;-83
2020/12/24 09:02:53;;;;;;;0.40;0.40;;;1.50;99.90;;;;;;4971699;28;20206;-83
2020/12/24 09:05:24;;;;;;;0.40;0.40;;;1.60;99.90;;;;;;4971182;28;20207;-83
2020/12/24 09:07:50;;;;;;;0.40;0.40;;;1.60;99.90;;;;;;4970884;28;20677;-83
2020/12/24 09:10:24;;;;;;;0.50;0.50;;;1.60;99.90;;;;;;4971972;28;20199;-83
2020/12/24 09:13:00;;;;;;;0.40;0.40;;;1.70;99.90;;;;;;4972403;28;20665;-81
2020/12/24 09:15:29;;;;;;;0.40;0.40;;;1.70;99.90;;;;;;4972138;28;20238;-83
2020/12/24 09:17:56;;;;;;;0.40;0.40;;;1.80;99.90;;;;;;4971741;28;20207;-83
2020/12/24 09:20:24;;;;;;;0.40;0.40;;;1.80;99.90;;;;;;4971170;28;20586;-84
2020/12/24 09:22:52;;;;;;;0.40;0.40;;;1.80;99.90;;;;;;4971276;28;20230;-84
2020/12/24 09:25:32;;;;;;;0.50;0.50;;;1.90;99.90;;;;;;4971317;28;20464;-84
2020/12/24 09:27:59;;;;;;;0.40;0.40;;;1.80;99.90;;;;;;4971753;28;20672;-85
2020/12/24 09:30:27;;;;;;;0.40;0.40;;;1.90;99.90;;;;;;4972151;28;20207;-86
2020/12/24 09:32:55;;;;;;;0.40;0.40;;;1.90;99.90;;;;;;4971834;28;20262;-85
2020/12/24 09:35:23;;;;;;;0.40;0.40;;;2.00;99.90;;;;;;4970883;28;20269;-84
2020/12/24 09:37:52;;;;;;;0.45;0.45;;;2.00;99.90;;;;;;4971161;28;20226;-85
2020/12/24 09:40:21;;;;;;;0.40;0.40;;;2.00;99.90;;;;;;4971150;28;20247;-84
2020/12/24 09:42:47;;;;;;;0.50;0.50;;;2.00;99.90;;;;;;4971773;28;20316;-84
2020/12/24 09:45:14;;;;;;;0.50;0.50;;;2.10;99.90;;;;;;4971804;28;20223;-83
2020/12/24 09:47:43;;;;;;;0.40;0.40;;;2.10;99.90;;;;;;4970491;28;20299;-85
2020/12/24 09:50:10;;;;;;;0.40;0.40;;;2.20;99.90;;;;;;4971660;28;20668;-85
2020/12/24 09:52:45;;;;;;;0.40;0.40;;;2.20;99.90;;;;;;4971066;28;20206;-85
2020/12/24 09:55:11;;;;;;;0.40;0.40;;;2.30;99.90;;;;;;4971117;28;20582;-84
2020/12/24 09:57:37;;;;;;;0.40;0.40;;;2.30;99.90;;;;;;4971531;28;20207;-85
2020/12/24 10:00:05;;;;;;;0.40;0.40;;;2.40;99.90;;;;;;4970726;28;20230;-84
2020/12/24 10:02:35;;;;;;;0.40;0.40;;;2.40;99.90;;;;;;4970577;28;20214;-90
2020/12/24 10:23:13;;;;;;;0.40;0.40;;;2.80;99.90;;;;;;4779358;29;20229;-83
2020/12/24 10:28:55;;;;;;;0.40;0.40;;;2.80;99.90;;;;;;4728563;29;20836;-83
2020/12/24 10:31:26;;;;;;;0.40;0.40;;;3.00;99.90;;;;;;4820666;29;20211;-82
2020/12/24 10:33:52;;;;;;;0.40;0.40;;;3.10;99.90;;;;;;4900553;28;20737;-85
2020/12/24 10:36:25;;;;;;;0.40;0.40;;;3.10;99.90;;;;;;4951073;28;20211;-86
2020/12/24 10:38:53;;;;;;;0.40;0.40;;;3.10;99.90;;;;;;4951716;29;20637;-83
2020/12/24 10:41:20;;;;;;;0.40;0.40;;;3.20;99.90;;;;;;4951788;29;20596;-83
2020/12/24 10:43:46;;;;;;;0.40;0.40;;;3.20;99.90;;;;;;4957251;28;20199;-84
2020/12/24 10:46:21;;;;;;;0.40;0.40;;;3.30;99.90;;;;;;4966897;28;20203;-83
2020/12/24 10:48:47;;;;;;;0.40;0.40;;;3.30;99.90;;;;;;4969643;28;20802;-84
2020/12/24 10:51:17;;;;;;;0.40;0.40;;;3.30;99.90;;;;;;4971766;28;20219;-83
2020/12/24 10:53:48;;;;;;;0.40;0.40;;;3.30;99.90;;;;;;4972298;28;20238;-82
2020/12/24 10:56:15;;;;;;;0.40;0.40;;;3.40;99.90;;;;;;4971426;28;20207;-83
2020/12/24 10:58:42;;;;;;;0.40;0.40;;;3.40;99.90;;;;;;4971959;28;20226;-82
2020/12/24 11:01:12;;;;;;;0.40;0.40;;;3.50;99.90;;;;;;4971696;28;20218;-82
2020/12/24 11:03:40;;;;;;;0.40;0.40;;;3.40;99.90;;;;;;4971867;28;20330;-82
2020/12/24 11:06:09;;;;;;;0.40;0.40;;;3.40;99.90;;;;;;4969501;28;20230;-82
2020/12/24 11:08:35;;;;;;;0.40;0.40;;;3.40;99.90;;;;;;4970871;28;20577;-82
2020/12/24 11:11:02;;;;;;;0.40;0.40;;;3.40;99.90;;;;;;4971865;28;20211;-82
2020/12/24 11:13:28;;;;;;;0.40;0.40;;;3.50;99.90;;;;;;4971508;28;20239;-83
2020/12/24 11:15:55;;;;;;;0.40;0.40;;;3.50;99.90;;;;;;4973081;28;20635;-84
2020/12/24 11:18:24;;;;;;;0.40;0.40;;;3.60;99.90;;;;;;4972575;28;20596;-82
2020/12/24 11:20:51;;;;;;;0.40;0.40;;;3.60;99.90;;;;;;4972802;28;20648;-82
2020/12/24 11:23:20;;;;;;;0.40;0.40;;;3.70;99.90;;;;;;4972263;28;20222;-82
2020/12/24 11:25:47;;;;;;;0.40;0.40;;;3.60;99.90;;;;;;4972753;28;20211;-81
2020/12/24 11:28:13;;;;;;;0.40;0.40;;;3.80;99.90;;;;;;4972379;28;20206;-81
2020/12/24 11:30:40;;;;;;;0.40;0.40;;;3.60;99.90;;;;;;4963388;28;20195;-81
2020/12/24 11:33:07;;;;;;;0.40;0.40;;;3.90;99.90;;;;;;4962531;28;20204;-81
2020/12/24 11:35:34;;;;;;;0.40;0.40;;;4.00;99.90;;;;;;4960061;28;20200;-81
2020/12/24 11:38:01;;;;;;;0.50;0.50;;;4.10;99.90;;;;;;4958638;28;20199;-81
2020/12/24 11:40:27;;;;;;;0.40;0.40;;;4.30;99.90;;;;;;4959592;28;20278;-83
2020/12/24 11:42:53;;;;;;;0.40;0.40;;;4.40;99.90;;;;;;4958873;28;20207;-81
2020/12/24 11:45:20;;;;;;;0.40;0.40;;;4.40;99.90;;;;;;4960052;28;20203;-82
2020/12/24 11:47:46;;;;;;;0.40;0.40;;;4.40;99.90;;;;;;4961074;28;20207;-84
2020/12/24 11:50:12;;;;;;;0.40;0.40;;;4.20;99.90;;;;;;4956818;28;20203;-84
2020/12/24 11:52:38;;;;;;;0.40;0.40;;;4.20;99.90;;;;;;4951558;29;20216;-85
2020/12/24 11:55:06;;;;;;;0.40;0.40;;;4.10;99.90;;;;;;4951373;29;20211;-85
2020/12/24 11:57:32;;;;;;;0.50;0.50;;;4.10;99.90;;;;;;4951219;29;20429;-87
2020/12/24 12:00:01;;;;;;;0.40;0.40;;;4.10;99.90;;;;;;4951473;29;20282;-88
2020/12/24 12:02:27;;;;;;;0.40;0.40;;;4.10;99.90;;;;;;4951467;29;20215;-88
2020/12/24 12:04:53;;;;;;;0.40;0.40;;;4.10;99.90;;;;;;4955317;28;20208;-88
2020/12/24 12:07:20;;;;;;;0.50;0.50;;;4.50;99.90;;;;;;4956088;29;20204;-86
2020/12/24 12:09:47;;;;;;;0.50;0.50;;;4.10;99.90;;;;;;4933464;28;20512;-86
2020/12/24 12:12:23;;;;;;;0.50;0.50;;;4.00;99.90;;;;;;4938837;28;20215;-88
2020/12/24 12:14:49;;;;;;;0.50;0.50;;;4.00;99.90;;;;;;4961412;28;20249;-88
2020/12/24 12:17:17;;;;;;;0.40;0.40;;;4.00;99.90;;;;;;4959238;28;20215;-83
2020/12/24 12:19:44;;;;;;;0.40;0.40;;;4.00;99.90;;;;;;4950720;28;20593;-84
2020/12/24 12:22:11;;;;;;;0.50;0.50;;;4.00;99.90;;;;;;4950695;28;20215;-84
2020/12/24 12:24:37;;;;;;;0.40;0.40;;;4.00;99.90;;;;;;4949353;28;20215;-84
2020/12/24 12:27:03;;;;;;;0.50;0.50;;;4.00;99.90;;;;;;4950194;28;20622;-85
2020/12/24 12:29:30;;;;;;;0.40;0.40;;;4.00;99.90;;;;;;4952527;28;20239;-83
2020/12/24 12:31:56;;;;;;;0.47;0.47;;;4.10;99.90;;;;;;4962269;28;20666;-84
2020/12/24 12:34:22;;;;;;;0.50;0.50;;;4.10;99.90;;;;;;4963182;28;20219;-84
2020/12/24 12:36:48;;;;;;;0.40;0.40;;;4.10;99.90;;;;;;4955813;28;20824;-84
2020/12/24 12:39:14;;;;;;;0.40;0.40;;;4.10;99.90;;;;;;4949989;28;20228;-84
2020/12/24 12:41:40;;;;;;;0.40;0.40;;;4.10;99.90;;;;;;4949963;28;20239;-84
2020/12/24 12:44:07;;;;;;;0.40;0.40;;;4.10;99.90;;;;;;4956886;28;20262;-84
2020/12/24 12:46:34;;;;;;;0.45;0.45;;;4.10;99.90;;;;;;4959624;28;20364;-84
2020/12/24 12:49:01;;;;;;;0.40;0.40;;;4.10;99.90;;;;;;4957414;28;20255;-83
2020/12/24 12:51:27;;;;;;;0.40;0.40;;;4.10;99.90;;;;;;4952592;28;20210;-84
2020/12/24 12:53:53;;;;;;;0.50;0.50;;;4.20;99.90;;;;;;4963902;28;20258;-83
2020/12/24 12:56:22;;;;;;;0.40;0.40;;;4.20;99.90;;;;;;4966583;28;20206;-83
2020/12/24 12:58:51;;;;;;;0.40;0.40;;;4.30;99.90;;;;;;4969167;28;20330;-83
2020/12/24 13:01:20;;;;;;;0.40;0.40;;;4.30;99.90;;;;;;4951446;28;20218;-84
2020/12/24 13:03:46;;;;;;;0.50;0.50;;;4.30;99.90;;;;;;4949933;28;20741;-83
2020/12/24 13:06:16;;;;;;;0.40;0.40;;;4.30;99.90;;;;;;4951260;28;20212;-82
2020/12/24 13:08:46;;;;;;;0.40;0.40;;;4.30;99.90;;;;;;4950460;28;20235;-86
2020/12/24 13:11:12;;;;;;;0.40;0.40;;;4.30;99.90;;;;;;4949202;28;20208;-85
2020/12/24 13:13:40;;;;;;;0.40;0.40;;;4.30;99.90;;;;;;4950017;28;20210;-85
2020/12/24 13:16:06;;;;;;;0.40;0.40;;;4.30;99.90;;;;;;4949703;28;20208;-84
2020/12/24 13:18:34;;;;;;;0.40;0.40;;;4.40;99.90;;;;;;4955617;28;20218;-84
2020/12/24 13:21:02;;;;;;;0.40;0.40;;;4.40;99.90;;;;;;4949745;28;20215;-84
2020/12/24 13:23:31;;;;;;;0.50;0.50;;;4.40;99.90;;;;;;4959566;28;20877;-85
2020/12/24 13:26:13;;;;;;;;;;;;;;;;;;;;;
2020/12/24 13:28:51;;;;;;;;;;;;;;;;;;;;;
2020/12/24 13:34:12;;;;;;;0.40;0.40;;;4.60;99.90;;;;;;4953958;28;20215;-83
2020/12/24 13:36:44;;;;;;;0.50;0.50;;;4.40;99.90;;;;;;4968858;28;20211;-83
2020/12/24 13:39:13;;;;;;;0.40;0.40;;;4.40;99.90;;;;;;4955194;28;20228;-84
2020/12/24 13:41:39;;;;;;;0.40;0.40;;;4.60;99.90;;;;;;4961568;28;20211;-84